sensor_id;sensor_type;location;lat;lon;timestamp;P1;durP1;ratioP1;P2;durP2;ratioP2
83728;SDS011;73707;56.480;-2.840;2024-02-21T00:02:11;6.78;;;2.95;;
83728;SDS011;73707;56.480;-2.840;2024-02-21T00:04:36;11.00;;;2.97;;
83728;SDS011;73707;56.480;-2.840;2024-02-21T00:07:03;7.93;;;2.65;;
83728;SDS011;73707;56.480;-2.840;2024-02-21T00:09:30;6.83;;;2.20;;
83728;SDS011;73707;56.480;-2.840;2024-02-21T00:11:56;13.43;;;3.47;;
83728;SDS011;73707;56.480;-2.840;2024-02-21T00:14:23;5.10;;;1.92;;
83728;SDS011;73707;56.480;-2.840;2024-02-21T00:16:49;12.63;;;3.05;;
83728;SDS011;73707;56.480;-2.840;2024-02-21T00:19:14;8.77;;;2.58;;
83728;SDS011;73707;56.480;-2.840;2024-02-21T00:21:40;3.90;;;1.30;;
83728;SDS011;73707;56.480;-2.840;2024-02-21T00:24:06;3.35;;;1.30;;
83728;SDS011;73707;56.480;-2.840;2024-02-21T00:26:32;3.80;;;1.50;;
83728;SDS011;73707;56.480;-2.840;2024-02-21T00:28:57;4.85;;;1.52;;
83728;SDS011;73707;56.480;-2.840;2024-02-21T00:31:23;3.30;;;1.57;;
83728;SDS011;73707;56.480;-2.840;2024-02-21T00:33:49;2.58;;;1.30;;
83728;SDS011;73707;56.480;-2.840;2024-02-21T00:36:15;3.65;;;1.55;;
83728;SDS011;73707;56.480;-2.840;2024-02-21T00:38:41;4.65;;;1.70;;
83728;SDS011;73707;56.480;-2.840;2024-02-21T00:41:07;15.03;;;3.40;;
83728;SDS011;73707;56.480;-2.840;2024-02-21T00:43:32;7.35;;;3.13;;
83728;SDS011;73707;56.480;-2.840;2024-02-21T00:45:58;10.07;;;3.20;;
83728;SDS011;73707;56.480;-2.840;2024-02-21T00:48:24;7.93;;;2.45;;
83728;SDS011;73707;56.480;-2.840;2024-02-21T00:50:50;10.53;;;2.60;;
83728;SDS011;73707;56.480;-2.840;2024-02-21T00:53:15;3.88;;;1.63;;
83728;SDS011;73707;56.480;-2.840;2024-02-21T00:55:41;7.37;;;2.00;;
83728;SDS011;73707;56.480;-2.840;2024-02-21T00:58:08;6.72;;;1.80;;
83728;SDS011;73707;56.480;-2.840;2024-02-21T01:00:34;5.27;;;1.77;;
83728;SDS011;73707;56.480;-2.840;2024-02-21T01:02:59;6.03;;;1.58;;
83728;SDS011;73707;56.480;-2.840;2024-02-21T01:05:25;4.27;;;1.27;;
83728;SDS011;73707;56.480;-2.840;2024-02-21T01:07:52;3.22;;;1.23;;
83728;SDS011;73707;56.480;-2.840;2024-02-21T01:10:18;4.82;;;1.40;;
83728;SDS011;73707;56.480;-2.840;2024-02-21T01:12:43;8.55;;;1.58;;
83728;SDS011;73707;56.480;-2.840;2024-02-21T01:15:09;2.20;;;1.10;;
83728;SDS011;73707;56.480;-2.840;2024-02-21T01:17:35;2.20;;;0.90;;
83728;SDS011;73707;56.480;-2.840;2024-02-21T01:20:01;2.15;;;1.08;;
83728;SDS011;73707;56.480;-2.840;2024-02-21T01:22:27;3.40;;;1.15;;
83728;SDS011;73707;56.480;-2.840;2024-02-21T01:24:53;3.20;;;1.20;;
83728;SDS011;73707;56.480;-2.840;2024-02-21T01:27:19;2.37;;;1.00;;
83728;SDS011;73707;56.480;-2.840;2024-02-21T01:29:46;3.75;;;1.33;;
83728;SDS011;73707;56.480;-2.840;2024-02-21T01:32:12;3.63;;;1.38;;
83728;SDS011;73707;56.480;-2.840;2024-02-21T01:34:38;2.13;;;1.10;;
83728;SDS011;73707;56.480;-2.840;2024-02-21T01:37:04;2.57;;;1.07;;
83728;SDS011;73707;56.480;-2.840;2024-02-21T01:39:32;7.05;;;1.35;;
83728;SDS011;73707;56.480;-2.840;2024-02-21T01:41:57;3.28;;;1.13;;
83728;SDS011;73707;56.480;-2.840;2024-02-21T01:44:23;3.43;;;1.00;;
83728;SDS011;73707;56.480;-2.840;2024-02-21T01:46:49;4.10;;;1.50;;
83728;SDS011;73707;56.480;-2.840;2024-02-21T01:49:16;1.50;;;0.70;;
83728;SDS011;73707;56.480;-2.840;2024-02-21T01:51:43;4.85;;;1.30;;
83728;SDS011;73707;56.480;-2.840;2024-02-21T01:54:12;3.65;;;1.05;;
83728;SDS011;73707;56.480;-2.840;2024-02-21T01:56:40;3.83;;;1.40;;
83728;SDS011;73707;56.480;-2.840;2024-02-21T01:59:06;3.47;;;1.27;;
83728;SDS011;73707;56.480;-2.840;2024-02-21T02:01:32;4.18;;;1.23;;
83728;SDS011;73707;56.480;-2.840;2024-02-21T02:03:58;7.90;;;1.43;;
83728;SDS011;73707;56.480;-2.840;2024-02-21T02:06:24;2.90;;;1.20;;
83728;SDS011;73707;56.480;-2.840;2024-02-21T02:08:50;3.38;;;1.15;;
83728;SDS011;73707;56.480;-2.840;2024-02-21T02:11:16;2.47;;;1.20;;
83728;SDS011;73707;56.480;-2.840;2024-02-21T02:13:42;3.75;;;1.17;;
83728;SDS011;73707;56.480;-2.840;2024-02-21T02:16:08;5.40;;;1.38;;
83728;SDS011;73707;56.480;-2.840;2024-02-21T02:18:34;4.75;;;1.30;;
83728;SDS011;73707;56.480;-2.840;2024-02-21T02:20:59;6.55;;;1.67;;
83728;SDS011;73707;56.480;-2.840;2024-02-21T02:23:25;2.73;;;0.97;;
83728;SDS011;73707;56.480;-2.840;2024-02-21T02:25:58;4.40;;;1.33;;
83728;SDS011;73707;56.480;-2.840;2024-02-21T02:28:25;7.70;;;1.95;;
83728;SDS011;73707;56.480;-2.840;2024-02-21T02:30:51;13.47;;;3.20;;
83728;SDS011;73707;56.480;-2.840;2024-02-21T02:33:17;6.70;;;2.33;;
83728;SDS011;73707;56.480;-2.840;2024-02-21T02:35:43;5.82;;;1.73;;
83728;SDS011;73707;56.480;-2.840;2024-02-21T02:38:09;6.35;;;2.50;;
83728;SDS011;73707;56.480;-2.840;2024-02-21T02:40:37;5.20;;;1.60;;
83728;SDS011;73707;56.480;-2.840;2024-02-21T02:43:04;4.22;;;1.42;;
83728;SDS011;73707;56.480;-2.840;2024-02-21T02:45:30;1.93;;;1.17;;
83728;SDS011;73707;56.480;-2.840;2024-02-21T02:47:56;2.47;;;1.33;;
83728;SDS011;73707;56.480;-2.840;2024-02-21T02:50:25;3.08;;;0.93;;
83728;SDS011;73707;56.480;-2.840;2024-02-21T02:52:52;2.00;;;0.77;;
83728;SDS011;73707;56.480;-2.840;2024-02-21T02:55:18;6.80;;;2.22;;
83728;SDS011;73707;56.480;-2.840;2024-02-21T02:57:44;3.47;;;1.40;;
83728;SDS011;73707;56.480;-2.840;2024-02-21T03:00:10;2.53;;;1.05;;
83728;SDS011;73707;56.480;-2.840;2024-02-21T03:02:37;8.85;;;3.33;;
83728;SDS011;73707;56.480;-2.840;2024-02-21T03:05:13;1.80;;;1.10;;
83728;SDS011;73707;56.480;-2.840;2024-02-21T03:07:43;5.25;;;1.52;;
83728;SDS011;73707;56.480;-2.840;2024-02-21T03:10:09;7.28;;;2.20;;
83728;SDS011;73707;56.480;-2.840;2024-02-21T03:12:35;6.50;;;1.98;;
83728;SDS011;73707;56.480;-2.840;2024-02-21T03:15:02;4.75;;;1.00;;
83728;SDS011;73707;56.480;-2.840;2024-02-21T03:17:28;6.68;;;2.55;;
83728;SDS011;73707;56.480;-2.840;2024-02-21T03:19:54;3.10;;;1.20;;
83728;SDS011;73707;56.480;-2.840;2024-02-21T03:22:20;2.70;;;0.90;;
83728;SDS011;73707;56.480;-2.840;2024-02-21T03:24:46;4.00;;;1.00;;
83728;SDS011;73707;56.480;-2.840;2024-02-21T03:27:12;4.03;;;1.05;;
83728;SDS011;73707;56.480;-2.840;2024-02-21T03:29:38;2.50;;;1.00;;
83728;SDS011;73707;56.480;-2.840;2024-02-21T03:32:04;2.53;;;0.95;;
83728;SDS011;73707;56.480;-2.840;2024-02-21T03:34:29;2.40;;;1.10;;
83728;SDS011;73707;56.480;-2.840;2024-02-21T03:36:55;3.17;;;1.20;;
83728;SDS011;73707;56.480;-2.840;2024-02-21T03:39:21;1.90;;;1.00;;
83728;SDS011;73707;56.480;-2.840;2024-02-21T03:41:47;3.47;;;1.08;;
83728;SDS011;73707;56.480;-2.840;2024-02-21T03:44:12;4.18;;;1.25;;
83728;SDS011;73707;56.480;-2.840;2024-02-21T03:46:38;3.00;;;1.27;;
83728;SDS011;73707;56.480;-2.840;2024-02-21T03:49:04;3.13;;;1.38;;
83728;SDS011;73707;56.480;-2.840;2024-02-21T03:51:30;3.40;;;1.37;;
83728;SDS011;73707;56.480;-2.840;2024-02-21T03:53:56;6.03;;;1.55;;
83728;SDS011;73707;56.480;-2.840;2024-02-21T03:56:21;3.85;;;1.80;;
83728;SDS011;73707;56.480;-2.840;2024-02-21T03:58:47;6.30;;;2.40;;
83728;SDS011;73707;56.480;-2.840;2024-02-21T04:01:14;4.47;;;1.83;;
83728;SDS011;73707;56.480;-2.840;2024-02-21T04:03:40;1.95;;;0.73;;
83728;SDS011;73707;56.480;-2.840;2024-02-21T04:06:07;1.95;;;0.95;;
83728;SDS011;73707;56.480;-2.840;2024-02-21T04:08:33;3.00;;;1.13;;
83728;SDS011;73707;56.480;-2.840;2024-02-21T04:10:58;2.50;;;1.07;;
83728;SDS011;73707;56.480;-2.840;2024-02-21T04:13:24;4.03;;;1.30;;
83728;SDS011;73707;56.480;-2.840;2024-02-21T04:15:50;5.57;;;1.40;;
83728;SDS011;73707;56.480;-2.840;2024-02-21T04:18:16;6.90;;;1.87;;
83728;SDS011;73707;56.480;-2.840;2024-02-21T04:20:42;2.85;;;1.40;;
83728;SDS011;73707;56.480;-2.840;2024-02-21T04:23:07;5.00;;;1.77;;
83728;SDS011;73707;56.480;-2.840;2024-02-21T04:25:33;3.47;;;1.38;;
83728;SDS011;73707;56.480;-2.840;2024-02-21T04:27:59;4.75;;;1.45;;
83728;SDS011;73707;56.480;-2.840;2024-02-21T04:30:24;6.40;;;1.52;;
83728;SDS011;73707;56.480;-2.840;2024-02-21T04:32:50;3.00;;;1.40;;
83728;SDS011;73707;56.480;-2.840;2024-02-21T04:35:16;2.80;;;1.17;;
83728;SDS011;73707;56.480;-2.840;2024-02-21T04:37:42;3.65;;;1.08;;
83728;SDS011;73707;56.480;-2.840;2024-02-21T04:40:08;8.13;;;1.90;;
83728;SDS011;73707;56.480;-2.840;2024-02-21T04:42:34;4.22;;;1.52;;
83728;SDS011;73707;56.480;-2.840;2024-02-21T04:45:00;3.28;;;1.30;;
83728;SDS011;73707;56.480;-2.840;2024-02-21T04:47:26;8.17;;;3.07;;
83728;SDS011;73707;56.480;-2.840;2024-02-21T04:49:52;3.00;;;1.35;;
83728;SDS011;73707;56.480;-2.840;2024-02-21T04:52:17;5.75;;;2.05;;
83728;SDS011;73707;56.480;-2.840;2024-02-21T04:54:43;9.80;;;2.10;;
83728;SDS011;73707;56.480;-2.840;2024-02-21T04:57:09;3.83;;;2.00;;
83728;SDS011;73707;56.480;-2.840;2024-02-21T04:59:41;4.47;;;1.73;;
83728;SDS011;73707;56.480;-2.840;2024-02-21T05:02:11;5.78;;;1.30;;
83728;SDS011;73707;56.480;-2.840;2024-02-21T05:04:36;4.77;;;1.60;;
83728;SDS011;73707;56.480;-2.840;2024-02-21T05:07:03;1.95;;;1.30;;
83728;SDS011;73707;56.480;-2.840;2024-02-21T05:09:29;4.05;;;1.45;;
83728;SDS011;73707;56.480;-2.840;2024-02-21T05:11:55;4.97;;;1.37;;
83728;SDS011;73707;56.480;-2.840;2024-02-21T05:14:20;3.65;;;1.30;;
83728;SDS011;73707;56.480;-2.840;2024-02-21T05:16:46;3.23;;;1.23;;
83728;SDS011;73707;56.480;-2.840;2024-02-21T05:19:12;2.92;;;1.00;;
83728;SDS011;73707;56.480;-2.840;2024-02-21T05:21:37;2.93;;;1.30;;
83728;SDS011;73707;56.480;-2.840;2024-02-21T05:24:03;3.90;;;1.40;;
83728;SDS011;73707;56.480;-2.840;2024-02-21T05:26:29;4.72;;;1.88;;
83728;SDS011;73707;56.480;-2.840;2024-02-21T05:28:55;2.83;;;1.20;;
83728;SDS011;73707;56.480;-2.840;2024-02-21T05:31:20;2.93;;;1.13;;
83728;SDS011;73707;56.480;-2.840;2024-02-21T05:33:46;6.80;;;1.83;;
83728;SDS011;73707;56.480;-2.840;2024-02-21T05:36:12;2.75;;;1.58;;
83728;SDS011;73707;56.480;-2.840;2024-02-21T05:38:38;4.80;;;1.95;;
83728;SDS011;73707;56.480;-2.840;2024-02-21T05:41:04;2.63;;;1.30;;
83728;SDS011;73707;56.480;-2.840;2024-02-21T05:43:30;4.32;;;1.67;;
83728;SDS011;73707;56.480;-2.840;2024-02-21T05:45:56;3.60;;;1.10;;
83728;SDS011;73707;56.480;-2.840;2024-02-21T05:48:22;5.75;;;2.13;;
83728;SDS011;73707;56.480;-2.840;2024-02-21T05:50:49;1.60;;;0.93;;
83728;SDS011;73707;56.480;-2.840;2024-02-21T05:53:14;2.67;;;1.33;;
83728;SDS011;73707;56.480;-2.840;2024-02-21T05:55:40;7.38;;;2.15;;
83728;SDS011;73707;56.480;-2.840;2024-02-21T05:58:06;6.07;;;2.10;;
83728;SDS011;73707;56.480;-2.840;2024-02-21T06:00:32;7.57;;;2.63;;
83728;SDS011;73707;56.480;-2.840;2024-02-21T06:02:58;9.60;;;2.47;;
83728;SDS011;73707;56.480;-2.840;2024-02-21T06:05:24;12.93;;;3.03;;
83728;SDS011;73707;56.480;-2.840;2024-02-21T06:07:50;6.93;;;1.60;;
83728;SDS011;73707;56.480;-2.840;2024-02-21T06:10:15;7.00;;;1.97;;
83728;SDS011;73707;56.480;-2.840;2024-02-21T06:12:41;5.07;;;1.65;;
83728;SDS011;73707;56.480;-2.840;2024-02-21T06:15:07;7.05;;;2.05;;
83728;SDS011;73707;56.480;-2.840;2024-02-21T06:17:33;3.35;;;1.35;;
83728;SDS011;73707;56.480;-2.840;2024-02-21T06:19:59;5.73;;;2.33;;
83728;SDS011;73707;56.480;-2.840;2024-02-21T06:22:25;10.68;;;2.25;;
83728;SDS011;73707;56.480;-2.840;2024-02-21T06:24:51;5.10;;;1.40;;
83728;SDS011;73707;56.480;-2.840;2024-02-21T06:27:18;11.88;;;4.28;;
83728;SDS011;73707;56.480;-2.840;2024-02-21T06:29:43;9.93;;;2.80;;
83728;SDS011;73707;56.480;-2.840;2024-02-21T06:32:09;7.53;;;2.88;;
83728;SDS011;73707;56.480;-2.840;2024-02-21T06:34:35;11.83;;;2.43;;
83728;SDS011;73707;56.480;-2.840;2024-02-21T06:37:00;3.90;;;1.38;;
83728;SDS011;73707;56.480;-2.840;2024-02-21T06:39:26;6.80;;;1.20;;
83728;SDS011;73707;56.480;-2.840;2024-02-21T06:41:53;6.00;;;1.67;;
83728;SDS011;73707;56.480;-2.840;2024-02-21T06:44:19;9.27;;;3.13;;
83728;SDS011;73707;56.480;-2.840;2024-02-21T06:46:46;6.78;;;1.83;;
83728;SDS011;73707;56.480;-2.840;2024-02-21T06:49:11;6.37;;;2.40;;
83728;SDS011;73707;56.480;-2.840;2024-02-21T06:51:41;5.97;;;2.30;;
83728;SDS011;73707;56.480;-2.840;2024-02-21T06:54:07;5.65;;;2.15;;
83728;SDS011;73707;56.480;-2.840;2024-02-21T06:56:34;6.47;;;2.50;;
83728;SDS011;73707;56.480;-2.840;2024-02-21T06:59:01;10.30;;;3.28;;
83728;SDS011;73707;56.480;-2.840;2024-02-21T07:01:28;7.93;;;2.00;;
83728;SDS011;73707;56.480;-2.840;2024-02-21T07:03:54;9.38;;;3.22;;
83728;SDS011;73707;56.480;-2.840;2024-02-21T07:06:20;15.63;;;3.47;;
83728;SDS011;73707;56.480;-2.840;2024-02-21T07:08:46;11.82;;;3.55;;
83728;SDS011;73707;56.480;-2.840;2024-02-21T07:11:11;10.57;;;3.70;;
83728;SDS011;73707;56.480;-2.840;2024-02-21T07:13:37;14.88;;;4.00;;
83728;SDS011;73707;56.480;-2.840;2024-02-21T07:16:03;10.63;;;3.17;;
83728;SDS011;73707;56.480;-2.840;2024-02-21T07:18:29;14.75;;;4.05;;
83728;SDS011;73707;56.480;-2.840;2024-02-21T07:20:54;10.68;;;3.17;;
83728;SDS011;73707;56.480;-2.840;2024-02-21T07:23:20;13.85;;;3.78;;
83728;SDS011;73707;56.480;-2.840;2024-02-21T07:25:46;7.88;;;2.50;;
83728;SDS011;73707;56.480;-2.840;2024-02-21T07:28:12;8.33;;;3.07;;
83728;SDS011;73707;56.480;-2.840;2024-02-21T07:30:38;11.18;;;3.53;;
83728;SDS011;73707;56.480;-2.840;2024-02-21T07:33:04;15.40;;;3.92;;
83728;SDS011;73707;56.480;-2.840;2024-02-21T07:35:30;14.02;;;4.00;;
83728;SDS011;73707;56.480;-2.840;2024-02-21T07:37:55;11.98;;;3.47;;
83728;SDS011;73707;56.480;-2.840;2024-02-21T07:40:21;12.87;;;3.70;;
83728;SDS011;73707;56.480;-2.840;2024-02-21T07:42:47;14.57;;;3.50;;
83728;SDS011;73707;56.480;-2.840;2024-02-21T07:45:13;14.60;;;3.92;;
83728;SDS011;73707;56.480;-2.840;2024-02-21T07:47:38;13.23;;;3.90;;
83728;SDS011;73707;56.480;-2.840;2024-02-21T07:50:04;12.20;;;3.20;;
83728;SDS011;73707;56.480;-2.840;2024-02-21T07:52:30;9.20;;;3.20;;
83728;SDS011;73707;56.480;-2.840;2024-02-21T07:54:56;12.43;;;3.60;;
83728;SDS011;73707;56.480;-2.840;2024-02-21T07:57:22;14.48;;;3.95;;
83728;SDS011;73707;56.480;-2.840;2024-02-21T07:59:48;17.27;;;3.45;;
83728;SDS011;73707;56.480;-2.840;2024-02-21T08:02:14;12.10;;;3.42;;
83728;SDS011;73707;56.480;-2.840;2024-02-21T08:04:40;7.78;;;3.33;;
83728;SDS011;73707;56.480;-2.840;2024-02-21T08:07:05;14.57;;;3.78;;
83728;SDS011;73707;56.480;-2.840;2024-02-21T08:09:31;14.73;;;4.22;;
83728;SDS011;73707;56.480;-2.840;2024-02-21T08:11:57;11.25;;;3.53;;
83728;SDS011;73707;56.480;-2.840;2024-02-21T08:14:23;15.05;;;4.38;;
83728;SDS011;73707;56.480;-2.840;2024-02-21T08:16:50;16.63;;;3.42;;
83728;SDS011;73707;56.480;-2.840;2024-02-21T08:19:20;17.75;;;4.25;;
83728;SDS011;73707;56.480;-2.840;2024-02-21T08:21:46;19.77;;;3.67;;
83728;SDS011;73707;56.480;-2.840;2024-02-21T08:24:12;13.88;;;3.38;;
83728;SDS011;73707;56.480;-2.840;2024-02-21T08:26:41;12.13;;;3.38;;
83728;SDS011;73707;56.480;-2.840;2024-02-21T08:29:07;12.63;;;3.17;;
83728;SDS011;73707;56.480;-2.840;2024-02-21T08:31:33;8.00;;;3.08;;
83728;SDS011;73707;56.480;-2.840;2024-02-21T08:33:59;12.17;;;3.43;;
83728;SDS011;73707;56.480;-2.840;2024-02-21T08:36:35;16.33;;;3.72;;
83728;SDS011;73707;56.480;-2.840;2024-02-21T08:39:01;14.85;;;4.18;;
83728;SDS011;73707;56.480;-2.840;2024-02-21T08:41:30;14.23;;;4.18;;
83728;SDS011;73707;56.480;-2.840;2024-02-21T08:43:59;11.93;;;3.42;;
83728;SDS011;73707;56.480;-2.840;2024-02-21T08:46:25;11.57;;;3.78;;
83728;SDS011;73707;56.480;-2.840;2024-02-21T08:48:51;11.15;;;3.05;;
83728;SDS011;73707;56.480;-2.840;2024-02-21T08:51:17;11.95;;;3.60;;
83728;SDS011;73707;56.480;-2.840;2024-02-21T08:53:44;21.55;;;4.28;;
83728;SDS011;73707;56.480;-2.840;2024-02-21T08:56:10;16.20;;;4.03;;
83728;SDS011;73707;56.480;-2.840;2024-02-21T08:58:36;12.18;;;3.45;;
83728;SDS011;73707;56.480;-2.840;2024-02-21T09:01:05;15.55;;;3.95;;
83728;SDS011;73707;56.480;-2.840;2024-02-21T09:03:34;10.07;;;3.85;;
83728;SDS011;73707;56.480;-2.840;2024-02-21T09:06:04;15.30;;;4.47;;
83728;SDS011;73707;56.480;-2.840;2024-02-21T09:08:34;17.48;;;3.95;;
83728;SDS011;73707;56.480;-2.840;2024-02-21T09:11:00;12.10;;;3.75;;
83728;SDS011;73707;56.480;-2.840;2024-02-21T09:13:26;23.90;;;4.88;;
83728;SDS011;73707;56.480;-2.840;2024-02-21T09:15:52;19.48;;;5.15;;
83728;SDS011;73707;56.480;-2.840;2024-02-21T09:18:18;16.35;;;5.40;;
83728;SDS011;73707;56.480;-2.840;2024-02-21T09:20:44;21.07;;;5.20;;
83728;SDS011;73707;56.480;-2.840;2024-02-21T09:23:10;16.90;;;5.93;;
83728;SDS011;73707;56.480;-2.840;2024-02-21T09:25:36;20.00;;;6.20;;
83728;SDS011;73707;56.480;-2.840;2024-02-21T09:28:02;15.27;;;5.67;;
83728;SDS011;73707;56.480;-2.840;2024-02-21T09:30:28;14.50;;;6.10;;
83728;SDS011;73707;56.480;-2.840;2024-02-21T09:32:55;29.73;;;6.72;;
83728;SDS011;73707;56.480;-2.840;2024-02-21T09:35:23;14.52;;;6.00;;
83728;SDS011;73707;56.480;-2.840;2024-02-21T09:37:51;18.58;;;6.00;;
83728;SDS011;73707;56.480;-2.840;2024-02-21T09:40:17;19.77;;;6.07;;
83728;SDS011;73707;56.480;-2.840;2024-02-21T09:42:43;15.23;;;6.18;;
83728;SDS011;73707;56.480;-2.840;2024-02-21T09:50:33;19.88;;;7.15;;
83728;SDS011;73707;56.480;-2.840;2024-02-21T09:53:01;16.80;;;6.30;;
83728;SDS011;73707;56.480;-2.840;2024-02-21T09:55:29;19.70;;;6.80;;
83728;SDS011;73707;56.480;-2.840;2024-02-21T09:57:59;16.48;;;6.78;;
83728;SDS011;73707;56.480;-2.840;2024-02-21T10:00:29;17.63;;;7.88;;
83728;SDS011;73707;56.480;-2.840;2024-02-21T10:02:55;24.03;;;8.47;;
83728;SDS011;73707;56.480;-2.840;2024-02-21T10:05:21;26.38;;;10.27;;
83728;SDS011;73707;56.480;-2.840;2024-02-21T10:07:47;19.07;;;8.90;;
83728;SDS011;73707;56.480;-2.840;2024-02-21T10:10:14;19.00;;;8.30;;
83728;SDS011;73707;56.480;-2.840;2024-02-21T10:12:48;19.50;;;8.73;;
83728;SDS011;73707;56.480;-2.840;2024-02-21T10:15:19;21.42;;;9.18;;
83728;SDS011;73707;56.480;-2.840;2024-02-21T10:17:46;27.10;;;8.45;;
83728;SDS011;73707;56.480;-2.840;2024-02-21T10:20:12;17.87;;;7.93;;
83728;SDS011;73707;56.480;-2.840;2024-02-21T10:22:39;20.17;;;8.82;;
83728;SDS011;73707;56.480;-2.840;2024-02-21T10:25:11;30.33;;;8.40;;
83728;SDS011;73707;56.480;-2.840;2024-02-21T10:27:38;17.38;;;7.28;;
83728;SDS011;73707;56.480;-2.840;2024-02-21T10:30:05;18.02;;;7.55;;
83728;SDS011;73707;56.480;-2.840;2024-02-21T10:32:48;17.80;;;6.55;;
83728;SDS011;73707;56.480;-2.840;2024-02-21T10:35:15;14.45;;;6.38;;
83728;SDS011;73707;56.480;-2.840;2024-02-21T10:37:58;14.55;;;6.90;;
83728;SDS011;73707;56.480;-2.840;2024-02-21T10:40:25;19.73;;;6.57;;
83728;SDS011;73707;56.480;-2.840;2024-02-21T10:42:56;17.13;;;6.20;;
83728;SDS011;73707;56.480;-2.840;2024-02-21T10:45:29;16.33;;;5.80;;
83728;SDS011;73707;56.480;-2.840;2024-02-21T10:47:59;14.75;;;5.18;;
83728;SDS011;73707;56.480;-2.840;2024-02-21T10:50:33;18.20;;;5.15;;
83728;SDS011;73707;56.480;-2.840;2024-02-21T10:53:44;18.88;;;5.68;;
83728;SDS011;73707;56.480;-2.840;2024-02-21T10:59:03;13.05;;;4.68;;
83728;SDS011;73707;56.480;-2.840;2024-02-21T11:01:30;16.55;;;4.45;;
83728;SDS011;73707;56.480;-2.840;2024-02-21T11:04:06;16.90;;;4.90;;
83728;SDS011;73707;56.480;-2.840;2024-02-21T11:06:34;11.07;;;4.78;;
83728;SDS011;73707;56.480;-2.840;2024-02-21T11:09:02;16.30;;;5.10;;
83728;SDS011;73707;56.480;-2.840;2024-02-21T11:11:30;12.30;;;4.25;;
83728;SDS011;73707;56.480;-2.840;2024-02-21T11:14:11;13.25;;;4.40;;
83728;SDS011;73707;56.480;-2.840;2024-02-21T11:16:44;8.70;;;4.05;;
83728;SDS011;73707;56.480;-2.840;2024-02-21T11:19:18;24.50;;;5.07;;
83728;SDS011;73707;56.480;-2.840;2024-02-21T11:21:49;14.07;;;4.63;;
83728;SDS011;73707;56.480;-2.840;2024-02-21T11:24:36;9.55;;;3.70;;
83728;SDS011;73707;56.480;-2.840;2024-02-21T11:27:12;19.25;;;5.30;;
83728;SDS011;73707;56.480;-2.840;2024-02-21T11:29:47;16.30;;;5.25;;
83728;SDS011;73707;56.480;-2.840;2024-02-21T11:32:16;14.15;;;4.50;;
83728;SDS011;73707;56.480;-2.840;2024-02-21T11:35:02;13.00;;;4.57;;
83728;SDS011;73707;56.480;-2.840;2024-02-21T11:37:30;9.30;;;3.80;;
83728;SDS011;73707;56.480;-2.840;2024-02-21T11:40:02;16.35;;;4.45;;
83728;SDS011;73707;56.480;-2.840;2024-02-21T11:42:29;12.52;;;4.25;;
83728;SDS011;73707;56.480;-2.840;2024-02-21T11:44:58;20.52;;;5.07;;
83728;SDS011;73707;56.480;-2.840;2024-02-21T11:47:25;18.40;;;4.60;;
83728;SDS011;73707;56.480;-2.840;2024-02-21T11:49:53;13.70;;;5.15;;
83728;SDS011;73707;56.480;-2.840;2024-02-21T11:52:21;20.02;;;7.25;;
83728;SDS011;73707;56.480;-2.840;2024-02-21T11:54:50;25.73;;;7.40;;
83728;SDS011;73707;56.480;-2.840;2024-02-21T11:57:16;19.83;;;5.65;;
83728;SDS011;73707;56.480;-2.840;2024-02-21T11:59:43;22.80;;;4.88;;
83728;SDS011;73707;56.480;-2.840;2024-02-21T12:02:10;16.20;;;4.25;;
83728;SDS011;73707;56.480;-2.840;2024-02-21T12:04:36;16.52;;;4.63;;
83728;SDS011;73707;56.480;-2.840;2024-02-21T12:07:02;18.73;;;5.03;;
83728;SDS011;73707;56.480;-2.840;2024-02-21T12:09:30;23.17;;;6.07;;
83728;SDS011;73707;56.480;-2.840;2024-02-21T12:11:57;26.88;;;5.00;;
83728;SDS011;73707;56.480;-2.840;2024-02-21T12:14:30;13.27;;;2.85;;
83728;SDS011;73707;56.480;-2.840;2024-02-21T12:16:57;5.05;;;1.92;;
83728;SDS011;73707;56.480;-2.840;2024-02-21T12:19:23;6.75;;;1.20;;
83728;SDS011;73707;56.480;-2.840;2024-02-21T12:21:49;4.75;;;1.42;;
83728;SDS011;73707;56.480;-2.840;2024-02-21T12:24:21;2.30;;;1.00;;
83728;SDS011;73707;56.480;-2.840;2024-02-21T12:26:51;4.10;;;0.70;;
83728;SDS011;73707;56.480;-2.840;2024-02-21T12:29:18;0.93;;;0.40;;
83728;SDS011;73707;56.480;-2.840;2024-02-21T12:31:44;3.85;;;0.45;;
83728;SDS011;73707;56.480;-2.840;2024-02-21T12:34:10;1.97;;;0.50;;
83728;SDS011;73707;56.480;-2.840;2024-02-21T12:36:36;1.35;;;0.52;;
83728;SDS011;73707;56.480;-2.840;2024-02-21T12:39:10;1.73;;;0.50;;
83728;SDS011;73707;56.480;-2.840;2024-02-21T12:41:36;3.78;;;1.02;;
83728;SDS011;73707;56.480;-2.840;2024-02-21T12:44:06;1.70;;;0.70;;
83728;SDS011;73707;56.480;-2.840;2024-02-21T12:46:35;1.48;;;0.40;;
83728;SDS011;73707;56.480;-2.840;2024-02-21T12:49:01;1.27;;;0.47;;
83728;SDS011;73707;56.480;-2.840;2024-02-21T12:51:28;3.50;;;0.52;;
83728;SDS011;73707;56.480;-2.840;2024-02-21T12:53:54;1.17;;;0.55;;
83728;SDS011;73707;56.480;-2.840;2024-02-21T12:56:20;4.28;;;0.80;;
83728;SDS011;73707;56.480;-2.840;2024-02-21T12:58:46;2.63;;;0.55;;
83728;SDS011;73707;56.480;-2.840;2024-02-21T13:01:12;3.00;;;0.77;;
83728;SDS011;73707;56.480;-2.840;2024-02-21T13:03:38;10.43;;;1.08;;
83728;SDS011;73707;56.480;-2.840;2024-02-21T13:06:04;2.20;;;1.00;;
83728;SDS011;73707;56.480;-2.840;2024-02-21T13:08:30;3.55;;;0.65;;
83728;SDS011;73707;56.480;-2.840;2024-02-21T13:10:56;1.17;;;0.60;;
83728;SDS011;73707;56.480;-2.840;2024-02-21T13:13:22;1.77;;;0.50;;
83728;SDS011;73707;56.480;-2.840;2024-02-21T13:15:47;1.63;;;0.53;;
83728;SDS011;73707;56.480;-2.840;2024-02-21T13:18:13;3.50;;;0.55;;
83728;SDS011;73707;56.480;-2.840;2024-02-21T13:20:39;1.20;;;0.50;;
83728;SDS011;73707;56.480;-2.840;2024-02-21T13:23:04;2.03;;;0.83;;
83728;SDS011;73707;56.480;-2.840;2024-02-21T13:25:30;1.27;;;0.80;;
83728;SDS011;73707;56.480;-2.840;2024-02-21T13:27:55;0.57;;;0.30;;
83728;SDS011;73707;56.480;-2.840;2024-02-21T13:30:21;1.67;;;0.30;;
83728;SDS011;73707;56.480;-2.840;2024-02-21T13:32:47;2.10;;;0.50;;
83728;SDS011;73707;56.480;-2.840;2024-02-21T13:35:13;1.90;;;0.30;;
83728;SDS011;73707;56.480;-2.840;2024-02-21T13:37:40;0.47;;;0.27;;
83728;SDS011;73707;56.480;-2.840;2024-02-21T13:40:06;1.17;;;0.30;;
83728;SDS011;73707;56.480;-2.840;2024-02-21T13:42:34;1.83;;;0.77;;
83728;SDS011;73707;56.480;-2.840;2024-02-21T13:45:00;1.70;;;0.30;;
83728;SDS011;73707;56.480;-2.840;2024-02-21T13:47:26;0.20;;;0.10;;
83728;SDS011;73707;56.480;-2.840;2024-02-21T13:49:52;0.47;;;0.17;;
83728;SDS011;73707;56.480;-2.840;2024-02-21T13:52:18;0.40;;;0.20;;
83728;SDS011;73707;56.480;-2.840;2024-02-21T13:54:47;0.50;;;0.32;;
83728;SDS011;73707;56.480;-2.840;2024-02-21T13:57:13;1.52;;;0.30;;
83728;SDS011;73707;56.480;-2.840;2024-02-21T13:59:39;0.60;;;0.30;;
83728;SDS011;73707;56.480;-2.840;2024-02-21T14:02:05;0.90;;;0.23;;
83728;SDS011;73707;56.480;-2.840;2024-02-21T14:04:34;0.88;;;0.35;;
83728;SDS011;73707;56.480;-2.840;2024-02-21T14:07:00;0.30;;;0.10;;
83728;SDS011;73707;56.480;-2.840;2024-02-21T14:09:26;0.30;;;0.10;;
83728;SDS011;73707;56.480;-2.840;2024-02-21T14:11:54;0.50;;;0.20;;
83728;SDS011;73707;56.480;-2.840;2024-02-21T14:14:20;0.40;;;0.10;;
83728;SDS011;73707;56.480;-2.840;2024-02-21T14:16:46;0.30;;;0.10;;
83728;SDS011;73707;56.480;-2.840;2024-02-21T14:19:15;0.40;;;0.10;;
83728;SDS011;73707;56.480;-2.840;2024-02-21T14:21:40;0.00;;;0.00;;
83728;SDS011;73707;56.480;-2.840;2024-02-21T14:24:06;0.30;;;0.13;;
83728;SDS011;73707;56.480;-2.840;2024-02-21T14:26:33;0.10;;;0.10;;
83728;SDS011;73707;56.480;-2.840;2024-02-21T14:28:58;0.10;;;0.10;;
83728;SDS011;73707;56.480;-2.840;2024-02-21T14:31:25;0.50;;;0.30;;
83728;SDS011;73707;56.480;-2.840;2024-02-21T14:33:51;0.10;;;0.10;;
83728;SDS011;73707;56.480;-2.840;2024-02-21T14:36:17;0.20;;;0.10;;
83728;SDS011;73707;56.480;-2.840;2024-02-21T14:38:43;0.50;;;0.20;;